Time;durP1;ratioP1;P1;durP2;ratioP2;P2;SDS_P1;SDS_P2;PMS_P1;PMS_P2;Temp;Humidity;BMP_temperature;BMP_pressure;BME280_temperature;BME280_humidity;BME280_pressure;Samples;Min_cycle;Max_cycle;Signal;HPM_P1;HPM_P2
2021/10/26 00:00:51;;;;;;;11.87;7.10;;;9.80;92.10;;;;;;5051600;28;20189;-75
2021/10/26 00:03:17;;;;;;;15.67;7.37;;;9.90;92.20;;;;;;5050219;28;20209;-76
2021/10/26 00:05:42;;;;;;;9.90;6.53;;;9.90;92.20;;;;;;5051259;28;20253;-75
2021/10/26 00:08:08;;;;;;;14.50;8.10;;;9.90;92.40;;;;;;5034159;28;20185;-78
2021/10/26 00:10:34;;;;;;;10.87;7.10;;;9.90;92.40;;;;;;5031154;28;20219;-76
2021/10/26 00:13:00;;;;;;;13.80;7.03;;;9.90;92.40;;;;;;5033154;28;20205;-75
2021/10/26 00:15:26;;;;;;;14.07;7.53;;;10.00;92.40;;;;;;5031750;28;20415;-75
2021/10/26 00:17:52;;;;;;;10.93;6.50;;;10.00;92.20;;;;;;5031701;28;20205;-76
2021/10/26 00:20:19;;;;;;;16.20;7.93;;;10.00;92.30;;;;;;5031800;28;20915;-74
2021/10/26 00:22:45;;;;;;;9.30;6.20;;;10.10;92.30;;;;;;5032013;28;20462;-75
2021/10/26 00:25:11;;;;;;;13.07;7.23;;;10.10;92.20;;;;;;5031952;28;20907;-76
2021/10/26 00:27:36;;;;;;;12.63;7.13;;;10.20;92.00;;;;;;5032448;28;20277;-76
2021/10/26 00:30:04;;;;;;;11.80;7.07;;;10.10;92.10;;;;;;5032235;28;20951;-76
2021/10/26 00:32:30;;;;;;;12.60;7.37;;;10.20;92.20;;;;;;5032214;28;20247;-74
2021/10/26 00:34:56;;;;;;;11.20;7.13;;;10.30;92.00;;;;;;5031530;28;20424;-76
2021/10/26 00:37:21;;;;;;;15.20;7.03;;;10.30;91.80;;;;;;5030564;28;20904;-75
2021/10/26 00:39:47;;;;;;;12.70;7.10;;;10.30;91.80;;;;;;5032092;28;20680;-75
2021/10/26 00:42:13;;;;;;;11.90;7.17;;;10.30;91.60;;;;;;5034003;28;20189;-75
2021/10/26 00:44:39;;;;;;;11.63;7.00;;;10.30;91.00;;;;;;5038970;28;20260;-76
2021/10/26 00:47:05;;;;;;;13.03;7.40;;;10.30;91.10;;;;;;5036240;28;20216;-75
2021/10/26 00:49:31;;;;;;;12.97;8.27;;;10.30;91.00;;;;;;5033552;28;20420;-76
2021/10/26 00:51:57;;;;;;;11.83;6.80;;;10.20;91.10;;;;;;5031696;28;20525;-75
2021/10/26 00:54:24;;;;;;;12.37;7.40;;;10.20;91.30;;;;;;5028873;28;20204;-76
2021/10/26 00:56:51;;;;;;;10.60;7.50;;;10.30;91.20;;;;;;5025270;28;20450;-74
2021/10/26 00:59:17;;;;;;;14.50;8.33;;;10.30;91.00;;;;;;5029928;28;20499;-74
2021/10/26 01:01:43;;;;;;;15.00;7.67;;;10.20;91.10;;;;;;5029483;28;20495;-76
2021/10/26 01:04:09;;;;;;;10.97;7.43;;;10.20;91.30;;;;;;5028895;28;20443;-76
2021/10/26 01:06:35;;;;;;;12.50;7.20;;;10.20;91.50;;;;;;5035960;28;20427;-75
2021/10/26 01:09:02;;;;;;;15.60;7.03;;;10.30;91.00;;;;;;5038966;28;20420;-74
2021/10/26 01:11:30;;;;;;;12.97;7.97;;;10.30;90.90;;;;;;5034781;28;20491;-77
2021/10/26 01:13:57;;;;;;;12.40;7.70;;;10.10;91.30;;;;;;5031075;28;20804;-76
2021/10/26 01:16:23;;;;;;;10.83;7.30;;;10.00;91.60;;;;;;5030253;28;20430;-76
2021/10/26 01:18:49;;;;;;;12.63;7.33;;;10.10;91.70;;;;;;5030620;28;20487;-77
2021/10/26 01:21:16;;;;;;;12.30;7.83;;;10.10;91.80;;;;;;5034018;28;20618;-75
2021/10/26 01:23:41;;;;;;;12.67;7.50;;;10.20;91.70;;;;;;5037180;28;20486;-74
2021/10/26 01:26:07;;;;;;;15.90;7.97;;;10.20;91.40;;;;;;5035273;28;20424;-75
2021/10/26 01:28:33;;;;;;;16.33;7.90;;;10.20;91.40;;;;;;5038186;28;20173;-74
2021/10/26 01:31:00;;;;;;;13.97;7.83;;;10.20;91.40;;;;;;5038931;28;20204;-76
2021/10/26 01:33:26;;;;;;;16.60;7.90;;;10.20;91.50;;;;;;5039518;28;20428;-76
2021/10/26 01:35:53;;;;;;;15.93;8.27;;;10.10;91.60;;;;;;5032829;28;20833;-75
2021/10/26 01:38:23;;;;;;;17.33;8.97;;;10.10;91.80;;;;;;5032591;28;20581;-75
2021/10/26 01:40:49;;;;;;;13.63;8.17;;;10.20;91.70;;;;;;5032179;28;20419;-75
2021/10/26 01:43:14;;;;;;;13.13;7.67;;;10.30;91.60;;;;;;5029867;28;20501;-76
2021/10/26 01:45:40;;;;;;;12.80;7.63;;;10.40;91.40;;;;;;5029402;28;20542;-75
2021/10/26 01:48:06;;;;;;;16.33;9.47;;;10.40;91.40;;;;;;5029579;28;20219;-73
2021/10/26 01:50:32;;;;;;;16.40;8.00;;;10.40;91.60;;;;;;5029432;28;20658;-76
2021/10/26 01:52:57;;;;;;;14.50;7.60;;;10.50;91.60;;;;;;5030031;28;20201;-74
2021/10/26 01:55:23;;;;;;;14.67;8.30;;;10.70;91.10;;;;;;5028804;28;20189;-76
2021/10/26 01:57:49;;;;;;;14.50;7.77;;;10.70;90.50;;;;;;5029295;28;20177;-74
2021/10/26 02:00:18;;;;;;;12.57;7.87;;;10.70;90.60;;;;;;5028154;28;20185;-74
2021/10/26 02:02:49;;;;;;;13.80;8.40;;;10.60;91.00;;;;;;5029491;28;20523;-75
2021/10/26 02:05:15;;;;;;;12.93;8.43;;;10.50;91.60;;;;;;5027083;28;20843;-75
2021/10/26 02:07:41;;;;;;;12.00;8.13;;;10.60;92.10;;;;;;5028908;28;20755;-76
2021/10/26 02:10:08;;;;;;;15.80;8.13;;;10.60;92.20;;;;;;5030316;28;20497;-73
2021/10/26 02:12:35;;;;;;;16.23;8.80;;;10.60;92.40;;;;;;5030394;28;20471;-74
2021/10/26 02:15:01;;;;;;;14.57;8.37;;;10.60;92.80;;;;;;5032126;28;20420;-74
2021/10/26 02:17:27;;;;;;;14.83;9.23;;;10.50;93.20;;;;;;5030108;28;20558;-75
2021/10/26 02:19:52;;;;;;;18.57;8.27;;;10.40;93.60;;;;;;5031233;28;21034;-74
2021/10/26 02:22:18;;;;;;;16.30;9.03;;;10.40;93.80;;;;;;5040365;28;20188;-74
2021/10/26 02:24:45;;;;;;;19.90;8.70;;;10.50;94.00;;;;;;5040902;28;20193;-75
2021/10/26 02:27:11;;;;;;;15.53;8.70;;;10.50;93.80;;;;;;5041866;28;20424;-75
2021/10/26 02:29:37;;;;;;;13.23;8.40;;;10.50;94.00;;;;;;5040327;28;20489;-77
2021/10/26 02:32:04;;;;;;;15.53;8.80;;;10.60;94.20;;;;;;5034620;28;21001;-78
2021/10/26 02:34:30;;;;;;;14.17;8.80;;;10.60;94.30;;;;;;5033680;28;20707;-74
2021/10/26 02:36:56;;;;;;;13.83;8.57;;;10.70;94.50;;;;;;5034240;28;20448;-76
2021/10/26 02:39:22;;;;;;;15.97;9.00;;;10.70;94.60;;;;;;5033947;28;20193;-76
2021/10/26 02:41:48;;;;;;;18.20;9.50;;;10.70;94.70;;;;;;5032701;28;20424;-75
2021/10/26 02:44:14;;;;;;;19.33;10.00;;;10.60;94.90;;;;;;5033708;28;20204;-75
2021/10/26 02:46:40;;;;;;;15.80;9.37;;;10.60;95.10;;;;;;5034199;28;20230;-74
2021/10/26 02:49:05;;;;;;;14.77;8.80;;;10.50;95.20;;;;;;5034107;28;20276;-74
2021/10/26 02:51:32;;;;;;;17.63;10.60;;;10.60;95.40;;;;;;5033835;28;20614;-76
2021/10/26 02:53:57;;;;;;;14.80;8.90;;;10.60;95.60;;;;;;5033812;28;20303;-75
2021/10/26 02:56:23;;;;;;;13.13;9.50;;;10.60;95.70;;;;;;5034060;28;20434;-77
2021/10/26 02:58:49;;;;;;;16.20;8.57;;;10.60;95.80;;;;;;5033620;28;20552;-76
2021/10/26 03:01:15;;;;;;;17.27;10.23;;;10.50;95.70;;;;;;5034405;28;20201;-74
2021/10/26 03:03:41;;;;;;;19.30;10.80;;;10.40;95.30;;;;;;5033901;28;20205;-73
2021/10/26 03:06:07;;;;;;;18.20;10.40;;;10.40;95.50;;;;;;5032934;28;20474;-75
2021/10/26 03:08:33;;;;;;;20.47;9.90;;;10.30;95.90;;;;;;5034600;28;20212;-76
2021/10/26 03:10:59;;;;;;;15.80;10.17;;;10.30;96.10;;;;;;5032572;28;20217;-75
2021/10/26 03:13:24;;;;;;;15.00;10.03;;;10.20;96.50;;;;;;5043228;28;20439;-77
2021/10/26 03:15:50;;;;;;;19.83;10.30;;;10.20;96.70;;;;;;5036964;28;20260;-77
2021/10/26 03:18:17;;;;;;;20.47;9.07;;;10.30;96.80;;;;;;5034418;28;20217;-75
2021/10/26 03:20:42;;;;;;;19.87;11.00;;;10.30;96.80;;;;;;5034577;28;20268;-76
2021/10/26 03:23:10;;;;;;;17.93;10.33;;;10.30;96.80;;;;;;5034711;28;20467;-73
2021/10/26 03:25:35;;;;;;;20.97;10.97;;;10.30;96.80;;;;;;5037713;28;20181;-75
2021/10/26 03:28:01;;;;;;;26.00;9.20;;;10.30;96.90;;;;;;5040452;28;20430;-74
2021/10/26 03:30:27;;;;;;;18.97;10.77;;;10.30;97.00;;;;;;5038641;28;20192;-76
2021/10/26 03:32:53;;;;;;;18.90;11.50;;;10.40;97.10;;;;;;5037311;28;20606;-75
2021/10/26 03:35:19;;;;;;;21.50;9.80;;;10.40;97.00;;;;;;5034978;28;20205;-74
2021/10/26 03:37:45;;;;;;;17.83;9.67;;;10.40;97.10;;;;;;5033710;28;20612;-74
2021/10/26 03:40:12;;;;;;;17.47;9.80;;;10.30;97.00;;;;;;5033827;28;20430;-75
2021/10/26 03:42:39;;;;;;;21.60;10.77;;;10.30;97.00;;;;;;5034003;28;20522;-76
2021/10/26 03:45:06;;;;;;;17.77;9.50;;;10.30;97.10;;;;;;5033892;28;20428;-76
2021/10/26 03:47:37;;;;;;;15.27;9.47;;;10.40;97.10;;;;;;5032588;28;20765;-76
2021/10/26 03:50:04;;;;;;;21.57;11.40;;;10.40;96.60;;;;;;5034745;28;20416;-77
2021/10/26 03:52:30;;;;;;;19.00;10.80;;;10.40;96.50;;;;;;5032716;28;20489;-74
2021/10/26 03:54:56;;;;;;;21.23;10.83;;;10.30;96.60;;;;;;5032728;28;20998;-74
2021/10/26 03:57:22;;;;;;;21.50;10.20;;;10.20;96.80;;;;;;5034911;28;20208;-75
2021/10/26 03:59:48;;;;;;;19.03;11.20;;;10.20;97.00;;;;;;5033234;28;20824;-75
2021/10/26 04:02:20;;;;;;;23.00;11.07;;;10.20;97.10;;;;;;5033299;28;20188;-76
2021/10/26 04:04:46;;;;;;;25.00;12.30;;;10.10;97.30;;;;;;5032722;28;20181;-76
2021/10/26 04:07:12;;;;;;;20.20;10.83;;;10.10;97.30;;;;;;5032927;28;20420;-77
2021/10/26 04:09:51;;;;;;;21.33;10.27;;;10.10;97.40;;;;;;5035128;28;20429;-74
2021/10/26 04:12:24;;;;;;;23.80;10.93;;;10.10;97.40;;;;;;5033367;28;20304;-74
2021/10/26 04:14:51;;;;;;;23.53;12.77;;;10.00;97.50;;;;;;5033236;28;20478;-74
2021/10/26 04:17:19;;;;;;;20.27;11.97;;;10.00;97.60;;;;;;5033425;28;20914;-73
2021/10/26 04:19:46;;;;;;;18.20;11.10;;;9.90;97.70;;;;;;5031384;28;20509;-75
2021/10/26 04:22:13;;;;;;;19.77;11.67;;;9.90;97.90;;;;;;5033312;28;20428;-76
2021/10/26 04:24:38;;;;;;;21.20;11.73;;;9.90;98.00;;;;;;5032088;28;20428;-74
2021/10/26 04:27:04;;;;;;;18.43;11.70;;;9.80;98.00;;;;;;5033041;28;20434;-74
2021/10/26 04:29:30;;;;;;;20.70;11.60;;;9.80;98.00;;;;;;5032801;28;20208;-73
2021/10/26 04:31:56;;;;;;;24.47;11.50;;;9.90;98.00;;;;;;5031364;28;20217;-74
2021/10/26 04:34:22;;;;;;;23.47;12.53;;;9.90;98.00;;;;;;5030919;28;20292;-75
2021/10/26 04:36:47;;;;;;;24.57;12.77;;;9.90;97.90;;;;;;5031321;28;20651;-77
2021/10/26 04:39:13;;;;;;;20.80;12.73;;;9.90;97.90;;;;;;5031037;28;20247;-78
2021/10/26 04:41:39;;;;;;;21.67;12.97;;;9.90;97.80;;;;;;5029606;28;20553;-76
2021/10/26 04:44:05;;;;;;;18.93;11.67;;;10.00;97.70;;;;;;5030403;28;20217;-77
2021/10/26 04:46:34;;;;;;;24.73;12.23;;;10.00;97.50;;;;;;5032243;28;20490;-77
2021/10/26 04:49:01;;;;;;;21.47;12.10;;;10.00;97.20;;;;;;5030795;28;20920;-77
2021/10/26 04:51:27;;;;;;;21.87;12.30;;;10.00;97.20;;;;;;5030718;28;20475;-77
2021/10/26 04:53:52;;;;;;;24.60;11.10;;;10.00;97.20;;;;;;5030377;28;20521;-76
2021/10/26 04:56:18;;;;;;;18.90;11.10;;;10.00;97.20;;;;;;5030902;28;20934;-78
2021/10/26 04:58:44;;;;;;;18.23;11.17;;;10.00;97.10;;;;;;5031850;28;20236;-76
2021/10/26 05:01:09;;;;;;;17.13;10.70;;;10.00;97.00;;;;;;5030555;28;20275;-76
2021/10/26 05:03:35;;;;;;;19.33;11.00;;;9.90;97.20;;;;;;5029996;28;20692;-77
2021/10/26 05:06:03;;;;;;;22.50;12.67;;;10.00;97.10;;;;;;5031264;28;20204;-76
2021/10/26 05:08:29;;;;;;;23.70;13.80;;;10.00;97.10;;;;;;5033706;28;20268;-78
2021/10/26 05:10:55;;;;;;;18.93;11.70;;;10.00;97.20;;;;;;5030224;28;20433;-78
2021/10/26 05:13:20;;;;;;;21.40;11.30;;;10.00;97.20;;;;;;5038760;28;20431;-75
2021/10/26 05:15:46;;;;;;;23.87;12.60;;;10.00;97.20;;;;;;5041363;28;20177;-76
2021/10/26 05:18:13;;;;;;;25.57;12.83;;;10.10;97.20;;;;;;5036040;28;20524;-76
2021/10/26 05:20:40;;;;;;;20.57;10.80;;;10.10;97.00;;;;;;5032411;28;20416;-76
2021/10/26 05:23:07;;;;;;;18.37;11.10;;;10.00;96.90;;;;;;5039367;28;20443;-75
2021/10/26 05:25:33;;;;;;;31.53;12.00;;;10.00;96.80;;;;;;5036288;28;20454;-76
2021/10/26 05:27:59;;;;;;;28.90;12.90;;;10.00;96.80;;;;;;5032584;28;20459;-75
2021/10/26 05:30:25;;;;;;;19.80;11.93;;;10.00;96.90;;;;;;5032043;28;20434;-75
2021/10/26 05:32:52;;;;;;;23.10;13.10;;;10.00;97.00;;;;;;5033384;28;20475;-75
2021/10/26 05:35:17;;;;;;;26.10;14.17;;;10.00;97.30;;;;;;5032230;28;20420;-76
2021/10/26 05:37:43;;;;;;;20.80;12.00;;;9.90;97.30;;;;;;5035545;28;20450;-76
2021/10/26 05:40:10;;;;;;;20.30;11.70;;;9.90;97.50;;;;;;5031972;28;20216;-77
2021/10/26 05:42:36;;;;;;;28.30;13.43;;;9.90;97.70;;;;;;5030514;28;20205;-75
2021/10/26 05:45:03;;;;;;;26.40;13.63;;;10.00;97.80;;;;;;5028951;28;20419;-76
2021/10/26 05:47:29;;;;;;;20.33;11.60;;;10.00;97.90;;;;;;5020368;28;20428;-76
2021/10/26 05:49:55;;;;;;;20.40;11.60;;;10.10;97.90;;;;;;5029436;28;20442;-75
2021/10/26 05:52:21;;;;;;;21.07;10.30;;;10.10;97.60;;;;;;5029561;28;20266;-76
2021/10/26 05:54:47;;;;;;;23.43;13.00;;;10.10;97.30;;;;;;5031516;28;20173;-76
2021/10/26 05:57:12;;;;;;;21.00;11.57;;;10.10;97.00;;;;;;5033264;28;20673;-76
2021/10/26 05:59:38;;;;;;;19.33;11.60;;;10.00;97.10;;;;;;5033386;28;20268;-77
2021/10/26 06:02:04;;;;;;;34.90;12.77;;;10.00;97.10;;;;;;5034164;28;20323;-77
2021/10/26 06:04:29;;;;;;;24.33;12.57;;;10.00;97.20;;;;;;5031871;28;20212;-76
2021/10/26 06:06:56;;;;;;;18.33;11.40;;;10.00;97.20;;;;;;5032604;28;20189;-75
2021/10/26 06:09:22;;;;;;;23.20;11.00;;;10.00;97.10;;;;;;5033060;28;20194;-75
2021/10/26 06:11:50;;;;;;;20.67;11.00;;;10.00;96.90;;;;;;5033317;28;20529;-76
2021/10/26 06:14:16;;;;;;;26.17;13.30;;;9.90;96.90;;;;;;5032601;28;20440;-76
2021/10/26 06:16:43;;;;;;;21.10;12.10;;;9.80;97.10;;;;;;5032258;28;20431;-76
2021/10/26 06:19:10;;;;;;;20.53;11.60;;;9.80;97.40;;;;;;5032601;28;20180;-73
2021/10/26 06:21:36;;;;;;;22.63;13.20;;;9.80;97.60;;;;;;5033432;28;20477;-76
2021/10/26 06:24:02;;;;;;;24.03;12.23;;;9.90;97.70;;;;;;5032170;28;20452;-77
2021/10/26 06:26:29;;;;;;;18.10;11.23;;;9.80;97.80;;;;;;5033598;28;20416;-76
2021/10/26 06:28:56;;;;;;;22.20;12.20;;;9.80;97.70;;;;;;5034537;28;20427;-76
2021/10/26 06:31:22;;;;;;;23.93;12.93;;;9.90;97.80;;;;;;5043969;28;20471;-76
2021/10/26 06:33:48;;;;;;;22.40;12.33;;;9.90;97.70;;;;;;5041016;28;20431;-76
2021/10/26 06:36:14;;;;;;;23.60;13.47;;;10.00;97.50;;;;;;5035445;28;20424;-76
2021/10/26 06:38:40;;;;;;;22.53;11.20;;;10.00;97.40;;;;;;5033778;28;20201;-76
2021/10/26 06:41:06;;;;;;;21.40;11.77;;;10.00;97.20;;;;;;5036957;28;20428;-76
2021/10/26 06:43:33;;;;;;;28.77;12.80;;;10.00;97.20;;;;;;5033933;28;20286;-75
2021/10/26 06:45:59;;;;;;;26.20;13.00;;;10.00;97.10;;;;;;5032944;28;20431;-75
2021/10/26 06:48:25;;;;;;;28.20;12.97;;;10.10;97.00;;;;;;5033679;28;20801;-76
2021/10/26 06:50:52;;;;;;;19.20;11.63;;;10.10;96.70;;;;;;5033334;28;20288;-76
2021/10/26 06:53:19;;;;;;;26.60;12.60;;;10.20;96.50;;;;;;5033191;28;20443;-75
2021/10/26 06:55:46;;;;;;;23.17;12.37;;;10.20;96.50;;;;;;5033604;28;20499;-75
2021/10/26 06:58:11;;;;;;;30.97;15.47;;;10.30;96.40;;;;;;5033385;28;20451;-76
2021/10/26 07:00:38;;;;;;;26.03;12.40;;;10.20;96.00;;;;;;5034370;28;20775;-76
2021/10/26 07:03:04;;;;;;;28.00;13.90;;;10.20;96.10;;;;;;5032819;28;20267;-75
2021/10/26 07:05:32;;;;;;;36.07;13.50;;;10.30;96.20;;;;;;5035337;28;20423;-76
2021/10/26 07:07:58;;;;;;;23.87;12.83;;;10.40;96.30;;;;;;5036712;28;20909;-76
2021/10/26 07:10:24;;;;;;;21.33;12.00;;;10.50;96.50;;;;;;5035757;28;20436;-76
2021/10/26 07:12:50;;;;;;;23.00;11.87;;;10.60;96.60;;;;;;5034796;28;20464;-77
2021/10/26 07:15:17;;;;;;;21.13;12.07;;;10.70;96.60;;;;;;5034270;28;20506;-76
2021/10/26 07:17:43;;;;;;;21.87;11.57;;;10.80;96.40;;;;;;5033594;28;20188;-76
2021/10/26 07:20:12;;;;;;;20.37;11.53;;;10.90;96.20;;;;;;5034784;28;20427;-78
2021/10/26 07:22:38;;;;;;;22.07;11.60;;;10.90;96.00;;;;;;5035047;28;20852;-76
2021/10/26 07:25:08;;;;;;;22.60;12.70;;;11.00;96.00;;;;;;5035930;28;20439;-75
2021/10/26 07:27:35;;;;;;;20.60;11.50;;;10.90;95.90;;;;;;5059160;28;20519;-75
2021/10/26 07:30:02;;;;;;;22.63;11.80;;;11.00;96.00;;;;;;5033340;28;20457;-75
2021/10/26 07:32:28;;;;;;;27.03;13.80;;;11.00;96.00;;;;;;5024750;28;20488;-76
2021/10/26 07:34:54;;;;;;;30.50;15.07;;;11.10;96.10;;;;;;5031204;28;20463;-75
2021/10/26 07:37:23;;;;;;;27.33;14.27;;;11.10;96.00;;;;;;5032534;28;20220;-77
2021/10/26 07:39:51;;;;;;;24.90;12.70;;;11.20;95.80;;;;;;5032328;28;20217;-75
2021/10/26 07:42:19;;;;;;;21.97;13.13;;;11.20;95.60;;;;;;5032481;28;20430;-76
2021/10/26 07:44:46;;;;;;;20.57;12.50;;;11.30;95.40;;;;;;5031866;28;20412;-77
2021/10/26 07:47:15;;;;;;;22.60;13.20;;;11.40;95.30;;;;;;5032392;28;20427;-77
2021/10/26 07:49:42;;;;;;;25.93;13.33;;;11.60;95.00;;;;;;5031887;28;20526;-75
2021/10/26 07:52:08;;;;;;;25.30;13.57;;;11.70;94.20;;;;;;5032237;28;20491;-76
2021/10/26 07:54:34;;;;;;;28.13;14.03;;;11.80;93.80;;;;;;5042177;28;20462;-76
2021/10/26 07:57:00;;;;;;;19.90;11.80;;;11.80;93.60;;;;;;5041939;28;20189;-76
2021/10/26 07:59:26;;;;;;;21.47;12.33;;;11.80;93.40;;;;;;5039785;28;20451;-76
2021/10/26 08:01:52;;;;;;;28.97;12.77;;;11.80;93.30;;;;;;5032056;28;20501;-75
2021/10/26 08:04:18;;;;;;;20.47;12.17;;;11.90;93.40;;;;;;5030236;28;20296;-76
2021/10/26 08:06:44;;;;;;;20.50;12.27;;;11.90;93.40;;;;;;5032252;28;20280;-76
2021/10/26 08:09:10;;;;;;;25.90;11.87;;;11.90;93.10;;;;;;5031598;28;20189;-76
2021/10/26 08:11:37;;;;;;;19.33;10.87;;;12.00;92.80;;;;;;5028996;28;20459;-75
2021/10/26 08:14:04;;;;;;;19.30;11.73;;;12.20;92.30;;;;;;5030802;28;20517;-75
2021/10/26 08:16:30;;;;;;;23.70;12.77;;;12.30;92.00;;;;;;5024404;28;20416;-75
2021/10/26 08:18:56;;;;;;;20.80;11.57;;;12.50;91.60;;;;;;5031287;28;20869;-77
2021/10/26 08:21:22;;;;;;;19.93;10.80;;;12.60;91.40;;;;;;5032022;28;20497;-76
2021/10/26 08:23:50;;;;;;;19.67;11.90;;;12.70;91.30;;;;;;5030901;28;20438;-75
2021/10/26 08:26:21;;;;;;;21.60;13.00;;;12.80;91.20;;;;;;5032326;28;20416;-75
2021/10/26 08:28:49;;;;;;;22.17;12.03;;;12.70;90.80;;;;;;5034529;28;20419;-75
2021/10/26 08:36:27;;;;;;;23.30;12.03;;;13.00;90.20;;;;;;5035222;28;20278;-75
2021/10/26 08:38:52;;;;;;;26.30;12.53;;;12.90;89.90;;;;;;5028188;28;20444;-76
2021/10/26 08:41:19;;;;;;;22.90;12.37;;;13.00;89.90;;;;;;5034051;28;20660;-75
2021/10/26 08:43:45;;;;;;;22.13;12.80;;;13.10;89.70;;;;;;5027892;28;20739;-76
2021/10/26 08:46:12;;;;;;;21.07;11.53;;;13.20;89.60;;;;;;5038971;28;20451;-75
2021/10/26 08:48:40;;;;;;;19.43;10.97;;;13.30;88.70;;;;;;5042609;28;20423;-76
2021/10/26 08:51:07;;;;;;;28.33;14.30;;;13.50;88.40;;;;;;5034974;28;20463;-76
2021/10/26 08:53:33;;;;;;;21.70;12.53;;;13.50;88.30;;;;;;5031176;28;20530;-77
2021/10/26 08:56:03;;;;;;;21.90;12.57;;;13.60;88.60;;;;;;5030403;28;20927;-77
2021/10/26 08:58:30;;;;;;;27.13;12.90;;;13.70;88.70;;;;;;5023045;28;20421;-76
2021/10/26 09:00:58;;;;;;;22.73;11.80;;;13.90;88.10;;;;;;5031800;28;20420;-76
2021/10/26 09:03:37;;;;;;;27.80;12.67;;;14.10;87.60;;;;;;5027925;28;20466;-75
2021/10/26 09:06:08;;;;;;;22.97;13.23;;;14.20;87.00;;;;;;5035057;28;20926;-76
2021/10/26 09:08:35;;;;;;;21.90;12.90;;;14.20;86.00;;;;;;5039813;28;20442;-75
2021/10/26 09:11:20;;;;;;;29.80;15.00;;;14.20;86.30;;;;;;5032767;28;20433;-75
2021/10/26 09:16:47;;;;;;;27.67;14.47;;;14.30;85.70;;;;;;5043009;28;20416;-76
2021/10/26 09:19:19;;;;;;;25.00;12.50;;;14.20;85.90;;;;;;5040641;28;20428;-76
2021/10/26 09:22:01;;;;;;;28.40;13.90;;;14.40;85.60;;;;;;5031980;28;20451;-75
2021/10/26 09:24:28;;;;;;;265.00;41.53;;;14.60;85.20;;;;;;5030312;28;20444;-76
2021/10/26 09:27:03;;;;;;;26.10;16.13;;;14.50;84.60;;;;;;5030514;28;20433;-76
2021/10/26 09:29:44;;;;;;;22.73;12.90;;;14.50;84.10;;;;;;5034302;28;20466;-76
2021/10/26 09:32:44;;;;;;;23.93;13.03;;;14.60;84.60;;;;;;5035405;28;20467;-76
2021/10/26 09:35:12;;;;;;;20.13;10.80;;;14.70;84.00;;;;;;5011661;28;20432;-76
2021/10/26 09:37:44;;;;;;;12.17;6.97;;;14.70;84.00;;;;;;5012093;28;20994;-76
2021/10/26 09:40:11;;;;;;;12.30;7.83;;;14.90;83.30;;;;;;5012412;28;20571;-76
2021/10/26 09:42:52;;;;;;;16.50;7.80;;;14.90;83.40;;;;;;5012967;28;20940;-76
2021/10/26 09:45:24;;;;;;;15.90;8.03;;;15.00;84.00;;;;;;5011995;28;20421;-77
2021/10/26 09:47:54;;;;;;;22.63;8.07;;;15.20;84.00;;;;;;4996817;28;20413;-78
2021/10/26 09:50:20;;;;;;;12.07;5.83;;;15.20;82.80;;;;;;5013178;28;20480;-77
2021/10/26 09:52:49;;;;;;;16.53;5.27;;;15.30;82.10;;;;;;5012483;28;20499;-76
2021/10/26 09:55:34;;;;;;;8.33;4.50;;;15.20;81.10;;;;;;5009417;28;20425;-76
2021/10/26 09:58:03;;;;;;;6.10;4.30;;;14.80;80.30;;;;;;4996405;28;20495;-76
2021/10/26 10:00:34;;;;;;;8.13;4.90;;;14.70;81.80;;;;;;5007645;28;20421;-76
2021/10/26 10:03:05;;;;;;;16.20;4.73;;;14.70;82.20;;;;;;5000091;28;20445;-76
2021/10/26 10:05:36;;;;;;;7.93;4.40;;;14.80;82.70;;;;;;5020610;28;20428;-78
2021/10/26 10:08:33;;;;;;;9.53;4.10;;;14.80;80.30;;;;;;5019931;28;20520;-77
2021/10/26 10:11:05;;;;;;;10.63;4.60;;;14.80;81.10;;;;;;4957701;29;20530;-75
2021/10/26 10:13:31;;;;;;;11.30;4.73;;;14.90;81.50;;;;;;4955028;29;20524;-78
2021/10/26 10:15:57;;;;;;;13.43;4.27;;;14.90;80.90;;;;;;4954068;29;20467;-76
2021/10/26 10:18:24;;;;;;;10.40;4.17;;;15.10;79.60;;;;;;4953932;29;20454;-77
2021/10/26 10:20:55;;;;;;;20.57;5.27;;;15.30;78.30;;;;;;4954532;29;20435;-76
2021/10/26 10:23:23;;;;;;;194.43;24.50;;;15.30;77.30;;;;;;4960365;29;20518;-76
2021/10/26 10:25:53;;;;;;;21.73;4.60;;;15.20;76.80;;;;;;4962637;29;20428;-77
2021/10/26 10:28:22;;;;;;;12.00;4.17;;;15.20;78.10;;;;;;4952520;29;20428;-75
2021/10/26 10:30:48;;;;;;;51.57;7.80;;;15.30;77.60;;;;;;4956017;29;20945;-76
2021/10/26 10:33:20;;;;;;;7.87;3.87;;;15.60;76.50;;;;;;4955461;29;21260;-77
2021/10/26 10:35:49;;;;;;;7.33;3.50;;;15.80;74.90;;;;;;4956049;29;20452;-76
2021/10/26 10:38:18;;;;;;;7.20;4.03;;;15.90;74.60;;;;;;4955849;29;20960;-76
2021/10/26 10:40:44;;;;;;;7.43;3.80;;;16.00;74.60;;;;;;4955435;28;20415;-74
2021/10/26 10:43:09;;;;;;;8.37;4.10;;;16.10;74.20;;;;;;4957434;29;20476;-76
2021/10/26 10:45:41;;;;;;;55.03;10.60;;;16.20;74.60;;;;;;4953716;29;20421;-76
2021/10/26 10:48:27;;;;;;;21.83;6.20;;;16.20;74.20;;;;;;5019970;28;20207;-75
2021/10/26 10:51:10;;;;;;;7.27;3.70;;;16.20;74.60;;;;;;5034015;28;20544;-76
2021/10/26 10:53:36;;;;;;;8.40;4.83;;;16.10;74.20;;;;;;5026259;28;20430;-77
2021/10/26 10:56:19;;;;;;;6.80;3.60;;;16.10;74.00;;;;;;5032034;28;20544;-77
2021/10/26 10:58:48;;;;;;;8.40;4.07;;;15.90;74.00;;;;;;5033527;28;20404;-76
2021/10/26 11:01:33;;;;;;;11.43;4.47;;;15.80;75.40;;;;;;5031877;28;20424;-77
2021/10/26 11:04:18;;;;;;;5.07;3.40;;;16.00;76.10;;;;;;5029542;28;20484;-76
2021/10/26 11:06:44;;;;;;;5.00;3.33;;;16.00;74.90;;;;;;5031898;28;20471;-76
2021/10/26 11:09:28;;;;;;;7.20;3.87;;;15.90;75.40;;;;;;5032998;28;20427;-76
2021/10/26 11:12:15;;;;;;;8.70;4.03;;;16.10;75.40;;;;;;5034740;28;20232;-76
2021/10/26 11:14:52;;;;;;;14.00;3.90;;;16.10;74.80;;;;;;5035578;28;20422;-77
2021/10/26 11:17:35;;;;;;;6.00;2.93;;;16.30;74.00;;;;;;5031462;28;20422;-78
2021/10/26 11:20:04;;;;;;;41.53;9.10;;;16.50;72.90;;;;;;5032954;28;20927;-76
2021/10/26 11:23:04;;;;;;;31.00;5.77;;;16.50;71.60;;;;;;5033167;28;20424;-76
2021/10/26 11:25:35;;;;;;;11.93;3.70;;;16.20;72.90;;;;;;5032923;28;20441;-77
2021/10/26 11:28:24;;;;;;;37.97;7.30;;;16.10;73.50;;;;;;5032794;28;20528;-78
2021/10/26 11:30:52;;;;;;;488.03;53.07;;;16.10;73.20;;;;;;5032826;28;20433;-79
2021/10/26 11:33:18;;;;;;;30.47;6.43;;;16.40;73.70;;;;;;5032618;28;20440;-76
2021/10/26 11:35:52;;;;;;;6.60;4.00;;;16.50;72.70;;;;;;5032112;28;20806;-77
2021/10/26 11:38:20;;;;;;;16.63;4.97;;;16.40;71.70;;;;;;5031007;28;20194;-77
2021/10/26 11:41:03;;;;;;;9.60;4.50;;;16.30;72.90;;;;;;5033117;28;20459;-76
2021/10/26 11:43:53;;;;;;;7.30;3.37;;;16.20;73.30;;;;;;5031065;28;20470;-78
2021/10/26 11:46:35;;;;;;;6.40;3.50;;;16.00;74.50;;;;;;5030480;28;20941;-77
2021/10/26 11:49:23;;;;;;;4.60;3.50;;;15.90;74.60;;;;;;5033375;28;20510;-76
2021/10/26 11:51:57;;;;;;;15.53;4.40;;;15.80;75.20;;;;;;5032827;28;21000;-76
2021/10/26 11:54:29;;;;;;;8.97;3.23;;;15.80;74.90;;;;;;5033078;28;20556;-75
2021/10/26 11:57:00;;;;;;;29.67;5.73;;;15.80;74.90;;;;;;5034282;28;20415;-76
2021/10/26 11:59:33;;;;;;;16.50;4.20;;;15.70;75.90;;;;;;5031152;28;20423;-76
2021/10/26 12:02:15;;;;;;;5.70;3.17;;;15.50;75.90;;;;;;5030752;28;20524;-75
2021/10/26 12:04:48;;;;;;;12.33;4.20;;;15.40;77.00;;;;;;5027795;28;21218;-77
2021/10/26 12:07:16;;;;;;;6.23;3.60;;;15.30;77.70;;;;;;5031899;28;20490;-76
2021/10/26 12:09:45;;;;;;;6.90;3.90;;;15.20;77.80;;;;;;5031918;28;20952;-77
2021/10/26 12:12:19;;;;;;;7.17;3.60;;;15.10;77.80;;;;;;5030355;28;20479;-78
2021/10/26 12:14:47;;;;;;;4.87;3.37;;;15.10;78.30;;;;;;5025326;28;20466;-77
2021/10/26 12:17:22;;;;;;;10.40;4.10;;;15.00;78.40;;;;;;5031797;28;20456;-76
2021/10/26 12:19:57;;;;;;;10.70;4.00;;;14.90;78.70;;;;;;5033594;28;20415;-77
2021/10/26 12:22:41;;;;;;;3.13;2.70;;;15.00;79.00;;;;;;5031117;28;20450;-76
2021/10/26 12:25:20;;;;;;;4.80;3.23;;;15.10;78.70;;;;;;5028221;28;20416;-77
2021/10/26 12:27:50;;;;;;;8.63;3.47;;;15.20;78.40;;;;;;5026706;28;20420;-77
2021/10/26 12:30:15;;;;;;;7.17;3.70;;;15.40;77.70;;;;;;5030805;28;20774;-77
2021/10/26 12:32:48;;;;;;;6.20;3.40;;;15.60;78.30;;;;;;5031195;28;20474;-76
2021/10/26 12:35:13;;;;;;;6.33;4.07;;;15.70;77.00;;;;;;5029104;28;20303;-77
2021/10/26 12:37:39;;;;;;;5.37;3.47;;;15.60;76.10;;;;;;5031146;28;20527;-76
2021/10/26 12:40:21;;;;;;;14.63;4.30;;;15.50;76.70;;;;;;5030782;28;20440;-77
2021/10/26 12:43:03;;;;;;;5.43;3.30;;;15.40;76.80;;;;;;5027229;28;20444;-79
2021/10/26 12:45:34;;;;;;;7.10;4.33;;;15.50;77.40;;;;;;5029751;28;20454;-78
2021/10/26 12:48:06;;;;;;;7.07;4.20;;;15.70;77.30;;;;;;5034303;28;20482;-75